Time;durP1;ratioP1;P1;durP2;ratioP2;P2;SDS_P1;SDS_P2;PMS_P1;PMS_P2;Temp;Humidity;BMP_temperature;BMP_pressure;BME280_temperature;BME280_humidity;BME280_pressure;Samples;Min_cycle;Max_cycle;Signal;HPM_P1;HPM_P2
2024/01/28 00:02:24;;;;;;;35.22;16.55;;;;;;;;;;4984398;28;20046;-69
2024/01/28 00:04:50;;;;;;;33.75;16.40;;;;;;;;;;4988485;28;20045;-69
2024/01/28 00:07:16;;;;;;;32.90;16.98;;;;;;;;;;4988338;28;20435;-69
2024/01/28 00:09:44;;;;;;;31.05;17.92;;;;;;;;;;4981492;28;20106;-69
2024/01/28 00:12:10;;;;;;;34.40;17.65;;;;;;;;;;4982455;28;20072;-69
2024/01/28 00:14:37;;;;;;;36.75;17.67;;;;;;;;;;4990256;28;20495;-69
2024/01/28 00:17:04;;;;;;;31.25;17.17;;;;;;;;;;4994366;28;20045;-68
2024/01/28 00:19:30;;;;;;;33.97;16.98;;;;;;;;;;4992528;28;20054;-68
2024/01/28 00:21:56;;;;;;;37.50;17.58;;;;;;;;;;4988529;28;20050;-68
2024/01/28 00:24:23;;;;;;;36.85;16.88;;;;;;;;;;4987616;28;20055;-69
2024/01/28 00:26:50;;;;;;;30.02;17.25;;;;;;;;;;4987252;28;20125;-68
2024/01/28 00:29:16;;;;;;;31.95;16.35;;;;;;;;;;4989391;28;20034;-69
2024/01/28 00:31:42;;;;;;;27.88;15.85;;;;;;;;;;4988132;28;20137;-68
2024/01/28 00:34:08;;;;;;;29.23;16.30;;;;;;;;;;4985537;28;20482;-69
2024/01/28 00:36:34;;;;;;;35.83;16.67;;;;;;;;;;4988667;28;20073;-68
2024/01/28 00:39:00;;;;;;;32.95;16.48;;;;;;;;;;4985159;28;20170;-68
2024/01/28 00:41:29;;;;;;;28.98;16.60;;;;;;;;;;4986695;28;20034;-68
2024/01/28 00:43:55;;;;;;;35.45;17.48;;;;;;;;;;4985377;28;20521;-68
2024/01/28 00:46:22;;;;;;;33.22;16.13;;;;;;;;;;4987516;28;20046;-68
2024/01/28 00:48:48;;;;;;;31.75;16.80;;;;;;;;;;4995124;28;20043;-68
2024/01/28 00:51:14;;;;;;;28.55;15.27;;;;;;;;;;4986805;28;20054;-68
2024/01/28 00:53:41;;;;;;;29.67;15.88;;;;;;;;;;4989870;28;20050;-69
2024/01/28 00:56:07;;;;;;;27.73;15.68;;;;;;;;;;5020427;28;20383;-68
2024/01/28 00:58:34;;;;;;;30.15;15.98;;;;;;;;;;4985185;28;20419;-68
2024/01/28 01:01:00;;;;;;;27.08;15.20;;;;;;;;;;4987373;28;20042;-68
2024/01/28 01:03:26;;;;;;;29.65;15.98;;;;;;;;;;4986346;28;20061;-69
2024/01/28 01:05:52;;;;;;;28.55;15.30;;;;;;;;;;5015314;28;20042;-69
2024/01/28 01:08:18;;;;;;;27.30;15.20;;;;;;;;;;4987713;28;20046;-69
2024/01/28 01:10:44;;;;;;;31.75;15.85;;;;;;;;;;4985357;28;20405;-68
2024/01/28 01:13:10;;;;;;;31.50;15.77;;;;;;;;;;4982314;28;20065;-69
2024/01/28 01:15:36;;;;;;;28.98;14.23;;;;;;;;;;4988704;28;20047;-69
2024/01/28 01:18:02;;;;;;;30.23;15.15;;;;;;;;;;4990715;28;20395;-68
2024/01/28 01:20:28;;;;;;;30.45;15.43;;;;;;;;;;4985102;28;20050;-68
2024/01/28 01:22:54;;;;;;;29.13;15.35;;;;;;;;;;4981883;28;20046;-68
2024/01/28 01:25:20;;;;;;;28.95;14.82;;;;;;;;;;4993960;28;20494;-68
2024/01/28 01:27:48;;;;;;;25.27;14.73;;;;;;;;;;5018710;28;20044;-68
2024/01/28 01:30:15;;;;;;;25.52;14.65;;;;;;;;;;4985202;28;20082;-69
2024/01/28 01:32:41;;;;;;;28.10;15.18;;;;;;;;;;5016744;28;20490;-68
2024/01/28 01:35:12;;;;;;;26.20;14.82;;;;;;;;;;5021777;28;20062;-69
2024/01/28 01:37:38;;;;;;;25.23;14.88;;;;;;;;;;5019341;28;20060;-68
2024/01/28 01:40:05;;;;;;;25.45;14.85;;;;;;;;;;4984512;28;20050;-68
2024/01/28 01:42:31;;;;;;;30.52;16.27;;;;;;;;;;4985095;28;20144;-68
2024/01/28 01:44:57;;;;;;;23.88;14.80;;;;;;;;;;4992889;28;20510;-68
2024/01/28 01:47:23;;;;;;;28.77;15.18;;;;;;;;;;4991532;28;20046;-69
2024/01/28 01:49:49;;;;;;;25.30;14.55;;;;;;;;;;5021764;28;20049;-69
2024/01/28 01:52:16;;;;;;;22.15;13.50;;;;;;;;;;4992795;28;20078;-69
2024/01/28 01:54:49;;;;;;;24.33;13.38;;;;;;;;;;4992884;28;20049;-69
2024/01/28 01:57:16;;;;;;;23.63;13.48;;;;;;;;;;4988739;28;20098;-68
2024/01/28 01:59:42;;;;;;;19.27;12.82;;;;;;;;;;4991559;28;20042;-69
2024/01/28 02:02:09;;;;;;;26.38;13.55;;;;;;;;;;4981302;28;20108;-68
2024/01/28 02:04:35;;;;;;;23.92;12.05;;;;;;;;;;4988184;28;20070;-69
2024/01/28 02:07:02;;;;;;;20.50;11.45;;;;;;;;;;4990093;28;20042;-68
2024/01/28 02:09:28;;;;;;;22.23;11.77;;;;;;;;;;4989101;28;20055;-68
2024/01/28 02:11:54;;;;;;;20.83;11.40;;;;;;;;;;4982934;28;20057;-69
2024/01/28 02:14:24;;;;;;;22.40;11.93;;;;;;;;;;5021165;28;20057;-69
2024/01/28 02:16:50;;;;;;;22.25;11.95;;;;;;;;;;4996079;28;20037;-69
2024/01/28 02:19:17;;;;;;;20.73;12.25;;;;;;;;;;4989846;28;20137;-68
2024/01/28 02:21:43;;;;;;;20.63;12.38;;;;;;;;;;5024066;28;20041;-68
2024/01/28 02:24:09;;;;;;;20.05;13.32;;;;;;;;;;4989598;28;20454;-68
2024/01/28 02:26:35;;;;;;;20.55;12.32;;;;;;;;;;4991535;28;20054;-69
2024/01/28 02:29:03;;;;;;;25.58;12.07;;;;;;;;;;5022808;28;20402;-68
2024/01/28 02:31:29;;;;;;;23.42;12.52;;;;;;;;;;4986826;28;20058;-68
2024/01/28 02:33:55;;;;;;;20.05;11.15;;;;;;;;;;5021201;28;20053;-68
2024/01/28 02:36:21;;;;;;;22.45;11.50;;;;;;;;;;4989643;28;20410;-69
2024/01/28 02:38:47;;;;;;;23.95;12.90;;;;;;;;;;4987763;28;20046;-68
2024/01/28 02:41:13;;;;;;;21.38;11.50;;;;;;;;;;4984548;28;21051;-69
2024/01/28 02:43:39;;;;;;;19.60;10.80;;;;;;;;;;5014263;28;20050;-69
2024/01/28 02:46:05;;;;;;;24.65;11.80;;;;;;;;;;4987505;28;20129;-68
2024/01/28 02:48:31;;;;;;;17.10;11.35;;;;;;;;;;4984199;28;20050;-68
2024/01/28 02:50:57;;;;;;;20.48;11.40;;;;;;;;;;4985043;28;20073;-68
2024/01/28 02:53:23;;;;;;;22.65;11.05;;;;;;;;;;5017615;28;20084;-69
2024/01/28 02:55:57;;;;;;;19.27;10.30;;;;;;;;;;5018539;28;20161;-68
2024/01/28 02:58:26;;;;;;;19.60;10.20;;;;;;;;;;4989240;28;20080;-68
2024/01/28 03:00:52;;;;;;;25.98;11.73;;;;;;;;;;5021886;28;20384;-68
2024/01/28 03:03:18;;;;;;;19.45;10.18;;;;;;;;;;4988300;28;20038;-68
2024/01/28 03:05:45;;;;;;;20.58;10.90;;;;;;;;;;4986172;28;20505;-69
2024/01/28 03:08:11;;;;;;;21.40;11.38;;;;;;;;;;4990167;28;20461;-69
2024/01/28 03:10:37;;;;;;;18.90;10.23;;;;;;;;;;4990782;28;20046;-69
2024/01/28 03:13:04;;;;;;;18.73;10.48;;;;;;;;;;4986069;28;20070;-68
2024/01/28 03:15:30;;;;;;;17.73;10.57;;;;;;;;;;4986332;28;21451;-69
2024/01/28 03:17:56;;;;;;;14.55;10.50;;;;;;;;;;4988872;28;20153;-68
2024/01/28 03:20:24;;;;;;;19.55;11.25;;;;;;;;;;4987248;28;20479;-69
2024/01/28 03:22:56;;;;;;;14.85;10.13;;;;;;;;;;4994330;28;20050;-68
2024/01/28 03:25:23;;;;;;;18.25;11.32;;;;;;;;;;4990433;28;20113;-68
2024/01/28 03:27:49;;;;;;;25.45;10.70;;;;;;;;;;5023767;28;20058;-69
2024/01/28 03:30:15;;;;;;;20.52;10.15;;;;;;;;;;4991135;28;20117;-68
2024/01/28 03:32:41;;;;;;;21.10;10.50;;;;;;;;;;4991472;28;20053;-69
2024/01/28 03:35:07;;;;;;;21.90;10.60;;;;;;;;;;4986537;28;20050;-68
2024/01/28 03:37:33;;;;;;;25.52;11.13;;;;;;;;;;4990635;28;20046;-68
2024/01/28 03:39:59;;;;;;;20.83;10.30;;;;;;;;;;4992828;28;20039;-68
2024/01/28 03:42:25;;;;;;;20.50;10.48;;;;;;;;;;4995368;28;20061;-68
2024/01/28 03:44:51;;;;;;;19.05;11.05;;;;;;;;;;4993189;28;20406;-69
2024/01/28 03:47:17;;;;;;;22.52;10.35;;;;;;;;;;4991475;28;20865;-68
2024/01/28 03:49:43;;;;;;;16.90;10.32;;;;;;;;;;4991849;28;20046;-69
2024/01/28 03:52:09;;;;;;;23.13;10.38;;;;;;;;;;4992412;28;20486;-69
2024/01/28 03:54:35;;;;;;;18.60;9.90;;;;;;;;;;4985355;28;20132;-69
2024/01/28 03:57:02;;;;;;;17.25;10.25;;;;;;;;;;4986532;28;20096;-69
2024/01/28 03:59:28;;;;;;;19.85;10.27;;;;;;;;;;4985842;28;20039;-68
2024/01/28 04:01:54;;;;;;;19.95;10.73;;;;;;;;;;4984936;28;20054;-68
2024/01/28 04:04:20;;;;;;;20.17;9.98;;;;;;;;;;4982154;28;20046;-68
2024/01/28 04:06:46;;;;;;;21.90;10.30;;;;;;;;;;4990147;28;20070;-69
2024/01/28 04:09:13;;;;;;;19.48;10.57;;;;;;;;;;4987827;28;20572;-68
2024/01/28 04:11:39;;;;;;;24.63;10.35;;;;;;;;;;4987641;28;20526;-69
2024/01/28 04:14:05;;;;;;;21.33;10.40;;;;;;;;;;4989785;28;20061;-68
2024/01/28 04:16:32;;;;;;;15.52;9.82;;;;;;;;;;4984309;28;20045;-69
2024/01/28 04:18:58;;;;;;;19.17;10.38;;;;;;;;;;4987770;28;20090;-68
2024/01/28 04:21:26;;;;;;;16.58;9.90;;;;;;;;;;4984270;28;20157;-68
2024/01/28 04:23:52;;;;;;;19.38;10.20;;;;;;;;;;4988929;28;20053;-68
2024/01/28 04:26:18;;;;;;;19.13;10.75;;;;;;;;;;4988047;28;20129;-69
2024/01/28 04:28:46;;;;;;;23.95;10.75;;;;;;;;;;4983695;28;20399;-69
2024/01/28 04:31:16;;;;;;;22.88;10.40;;;;;;;;;;4985134;28;20479;-68
2024/01/28 04:33:42;;;;;;;18.42;9.50;;;;;;;;;;5014542;28;20046;-68
2024/01/28 04:36:08;;;;;;;17.30;10.27;;;;;;;;;;4984164;28;20057;-69
2024/01/28 04:38:34;;;;;;;21.33;10.60;;;;;;;;;;5018922;28;20046;-68
2024/01/28 04:41:00;;;;;;;20.98;10.60;;;;;;;;;;5018244;28;20045;-68
2024/01/28 04:43:26;;;;;;;20.00;10.60;;;;;;;;;;4983175;28;22140;-68
2024/01/28 04:45:53;;;;;;;19.50;10.85;;;;;;;;;;4986533;28;20046;-68
2024/01/28 04:48:19;;;;;;;16.98;11.15;;;;;;;;;;4989001;28;20049;-69
2024/01/28 04:50:45;;;;;;;21.15;10.30;;;;;;;;;;4986078;28;20108;-69
2024/01/28 04:53:12;;;;;;;20.85;11.15;;;;;;;;;;5014104;28;20051;-69
2024/01/28 04:55:38;;;;;;;23.05;10.93;;;;;;;;;;4982535;28;20050;-68
2024/01/28 04:58:04;;;;;;;19.27;10.95;;;;;;;;;;5012717;28;20046;-69
2024/01/28 05:00:30;;;;;;;22.05;11.57;;;;;;;;;;4982100;28;20065;-69
2024/01/28 05:02:56;;;;;;;19.02;11.50;;;;;;;;;;4986403;28;20046;-68
2024/01/28 05:05:25;;;;;;;19.52;11.13;;;;;;;;;;4982319;28;20046;-69
2024/01/28 05:07:51;;;;;;;22.00;11.50;;;;;;;;;;4979379;28;20129;-69
2024/01/28 05:10:17;;;;;;;19.98;10.63;;;;;;;;;;4979690;28;20055;-69
2024/01/28 05:12:45;;;;;;;18.38;10.95;;;;;;;;;;4981963;28;20082;-69
2024/01/28 05:15:16;;;;;;;20.15;11.45;;;;;;;;;;4985724;28;20409;-68
2024/01/28 05:17:42;;;;;;;21.75;11.20;;;;;;;;;;4983208;28;20430;-68
2024/01/28 05:20:11;;;;;;;20.52;12.07;;;;;;;;;;4985869;28;20419;-69
2024/01/28 05:22:37;;;;;;;18.23;12.30;;;;;;;;;;5019321;28;20129;-69
2024/01/28 05:25:04;;;;;;;23.38;15.68;;;;;;;;;;4986196;28;20038;-69
2024/01/28 05:27:30;;;;;;;27.58;12.45;;;;;;;;;;4990440;28;20052;-68
2024/01/28 05:29:58;;;;;;;22.65;12.43;;;;;;;;;;5017650;28;20133;-69
2024/01/28 05:32:25;;;;;;;18.85;12.13;;;;;;;;;;4985925;28;20049;-69
2024/01/28 05:34:51;;;;;;;20.63;11.95;;;;;;;;;;4996700;28;20474;-68
2024/01/28 05:37:17;;;;;;;20.70;13.10;;;;;;;;;;4991863;28;20041;-69
2024/01/28 05:39:44;;;;;;;21.75;12.20;;;;;;;;;;4990050;28;20046;-68
2024/01/28 05:42:10;;;;;;;24.95;13.85;;;;;;;;;;5025430;28;20046;-68
2024/01/28 05:44:36;;;;;;;22.73;13.32;;;;;;;;;;4984372;28;20418;-68
2024/01/28 05:47:03;;;;;;;23.65;14.48;;;;;;;;;;4983888;28;20042;-68
2024/01/28 05:49:29;;;;;;;24.13;14.57;;;;;;;;;;5013159;28;20094;-69
2024/01/28 05:51:55;;;;;;;26.92;14.82;;;;;;;;;;4984213;28;20058;-68
2024/01/28 05:54:21;;;;;;;22.23;14.15;;;;;;;;;;5016809;28;20100;-68
2024/01/28 05:56:47;;;;;;;23.63;14.90;;;;;;;;;;5017694;28;20148;-68
2024/01/28 05:59:13;;;;;;;22.33;14.65;;;;;;;;;;4982132;28;20054;-68
2024/01/28 06:01:39;;;;;;;21.75;14.00;;;;;;;;;;5018346;28;20104;-69
2024/01/28 06:04:07;;;;;;;22.48;14.90;;;;;;;;;;4983296;28;20054;-68
2024/01/28 06:06:33;;;;;;;23.25;14.57;;;;;;;;;;4986556;28;20054;-68
2024/01/28 06:08:59;;;;;;;27.08;15.40;;;;;;;;;;4982394;28;20406;-68
2024/01/28 06:11:25;;;;;;;25.50;15.32;;;;;;;;;;4986710;28;20054;-69
2024/01/28 06:13:54;;;;;;;23.90;15.48;;;;;;;;;;4987139;28;20398;-68
2024/01/28 06:16:20;;;;;;;22.02;16.17;;;;;;;;;;4989855;28;20493;-69
2024/01/28 06:18:46;;;;;;;23.52;15.93;;;;;;;;;;4984936;28;20053;-69
2024/01/28 06:21:12;;;;;;;26.20;16.30;;;;;;;;;;4993224;28;20042;-68
2024/01/28 06:23:38;;;;;;;23.17;16.60;;;;;;;;;;4984709;28;20050;-69
2024/01/28 06:26:05;;;;;;;26.90;18.13;;;;;;;;;;4991099;28;20502;-68
2024/01/28 06:28:31;;;;;;;26.08;17.35;;;;;;;;;;4989795;28;20057;-68
2024/01/28 06:30:57;;;;;;;27.60;17.70;;;;;;;;;;4988576;28;20050;-68
2024/01/28 06:33:24;;;;;;;23.55;16.95;;;;;;;;;;4991596;28;20043;-68
2024/01/28 06:35:50;;;;;;;27.08;16.67;;;;;;;;;;4991287;28;20480;-68
2024/01/28 06:38:17;;;;;;;26.90;16.67;;;;;;;;;;4987590;28;20130;-68
2024/01/28 06:40:43;;;;;;;25.60;18.48;;;;;;;;;;4988232;28;21441;-69
2024/01/28 06:43:09;;;;;;;24.05;16.73;;;;;;;;;;4988026;28;20051;-68
2024/01/28 06:45:35;;;;;;;27.67;17.77;;;;;;;;;;5020851;28;20050;-68
2024/01/28 06:48:01;;;;;;;28.50;17.98;;;;;;;;;;4996226;28;20511;-68
2024/01/28 06:50:27;;;;;;;26.85;18.08;;;;;;;;;;4992037;28;20511;-68
2024/01/28 06:52:53;;;;;;;26.38;17.08;;;;;;;;;;4993848;28;20125;-68
2024/01/28 06:55:19;;;;;;;27.33;17.70;;;;;;;;;;4994877;28;20566;-68
2024/01/28 06:57:46;;;;;;;25.85;17.95;;;;;;;;;;4988483;28;20082;-68
2024/01/28 07:00:13;;;;;;;28.73;16.85;;;;;;;;;;5017617;28;20490;-69
2024/01/28 07:02:40;;;;;;;25.95;16.95;;;;;;;;;;5019848;28;20082;-68
2024/01/28 07:05:09;;;;;;;23.92;16.48;;;;;;;;;;4990724;28;20532;-68
2024/01/28 07:07:35;;;;;;;29.60;18.13;;;;;;;;;;4987894;28;20479;-69
2024/01/28 07:10:01;;;;;;;27.30;17.23;;;;;;;;;;4989718;28;20530;-68
2024/01/28 07:12:27;;;;;;;31.23;18.17;;;;;;;;;;4988192;28;20161;-68
2024/01/28 07:14:53;;;;;;;24.83;17.80;;;;;;;;;;5020568;28;20108;-68
2024/01/28 07:17:19;;;;;;;27.75;16.40;;;;;;;;;;4988841;28;20503;-69
2024/01/28 07:19:45;;;;;;;24.83;16.83;;;;;;;;;;4990920;28;20041;-68
2024/01/28 07:22:11;;;;;;;24.10;16.90;;;;;;;;;;4990266;28;20050;-68
2024/01/28 07:24:38;;;;;;;24.80;16.23;;;;;;;;;;4981281;28;20052;-68
2024/01/28 07:27:05;;;;;;;23.73;17.38;;;;;;;;;;5017425;28;20506;-68
2024/01/28 07:29:31;;;;;;;22.98;16.35;;;;;;;;;;4990121;28;20104;-68
2024/01/28 07:31:57;;;;;;;25.20;17.33;;;;;;;;;;4986152;28;20406;-68
2024/01/28 07:34:23;;;;;;;24.58;16.58;;;;;;;;;;4986599;28;20068;-69
2024/01/28 07:36:51;;;;;;;28.00;18.52;;;;;;;;;;4980095;28;20112;-69
2024/01/28 07:39:17;;;;;;;26.85;16.70;;;;;;;;;;5016477;28;20046;-68
2024/01/28 07:41:43;;;;;;;31.33;17.48;;;;;;;;;;5020722;28;20050;-68
2024/01/28 07:44:09;;;;;;;24.75;16.88;;;;;;;;;;4986111;28;20038;-68
2024/01/28 07:46:35;;;;;;;23.45;16.27;;;;;;;;;;4988237;28;20054;-68
2024/01/28 07:49:01;;;;;;;25.63;16.70;;;;;;;;;;4990909;28;20065;-68
2024/01/28 07:51:29;;;;;;;24.38;16.25;;;;;;;;;;4986832;28;20042;-69
2024/01/28 07:53:55;;;;;;;21.45;16.02;;;;;;;;;;4993493;28;20462;-68
2024/01/28 07:56:22;;;;;;;24.65;16.58;;;;;;;;;;4986451;28;20061;-68
2024/01/28 07:58:48;;;;;;;28.33;16.40;;;;;;;;;;4993945;28;20038;-68
2024/01/28 08:01:14;;;;;;;21.42;15.85;;;;;;;;;;4985027;28;20726;-67
2024/01/28 08:03:40;;;;;;;28.13;15.70;;;;;;;;;;5017753;28;20057;-68
2024/01/28 08:06:07;;;;;;;21.63;15.82;;;;;;;;;;4988143;28;20129;-68
2024/01/28 08:08:34;;;;;;;22.02;16.10;;;;;;;;;;4983208;28;20076;-69
2024/01/28 08:11:00;;;;;;;24.92;16.45;;;;;;;;;;4990293;28;20038;-69
2024/01/28 08:13:26;;;;;;;22.45;15.40;;;;;;;;;;5020162;28;20084;-68
2024/01/28 08:15:54;;;;;;;25.55;16.58;;;;;;;;;;5021403;28;20046;-68
2024/01/28 08:18:20;;;;;;;23.67;15.57;;;;;;;;;;5022249;28;20053;-68
2024/01/28 08:20:46;;;;;;;23.52;16.00;;;;;;;;;;4987231;28;20038;-68
2024/01/28 08:23:12;;;;;;;24.17;15.77;;;;;;;;;;4990000;28;20038;-68
2024/01/28 08:25:38;;;;;;;28.13;16.27;;;;;;;;;;4992727;28;20513;-68
2024/01/28 08:28:04;;;;;;;21.45;15.55;;;;;;;;;;4986381;28;20051;-68
2024/01/28 08:30:31;;;;;;;24.00;15.20;;;;;;;;;;4986971;28;20142;-68
2024/01/28 08:32:56;;;;;;;25.83;15.18;;;;;;;;;;4983453;28;20093;-68
2024/01/28 08:35:23;;;;;;;27.85;15.02;;;;;;;;;;4987737;28;20145;-68
2024/01/28 08:37:49;;;;;;;22.70;15.50;;;;;;;;;;5017988;28;20055;-68
2024/01/28 08:40:15;;;;;;;22.73;16.42;;;;;;;;;;4982611;28;20055;-68
2024/01/28 08:42:41;;;;;;;22.38;15.52;;;;;;;;;;4986208;28;20046;-69
2024/01/28 08:45:07;;;;;;;23.88;15.90;;;;;;;;;;5017338;28;20993;-69
2024/01/28 08:47:33;;;;;;;21.52;15.07;;;;;;;;;;4984586;28;20050;-68
2024/01/28 08:49:59;;;;;;;25.25;15.30;;;;;;;;;;4985681;28;20042;-68
2024/01/28 08:52:25;;;;;;;23.55;13.88;;;;;;;;;;4986224;28;20049;-68
2024/01/28 08:54:51;;;;;;;26.08;15.55;;;;;;;;;;4986269;28;20137;-68
2024/01/28 08:57:18;;;;;;;25.38;16.10;;;;;;;;;;4987896;28;20148;-68
2024/01/28 08:59:44;;;;;;;23.52;15.60;;;;;;;;;;4991645;28;20048;-68
2024/01/28 09:02:13;;;;;;;25.25;15.43;;;;;;;;;;4990833;28;20132;-68
2024/01/28 09:04:39;;;;;;;21.23;15.20;;;;;;;;;;5024946;28;20509;-68
2024/01/28 09:07:05;;;;;;;24.27;15.00;;;;;;;;;;4985796;28;20054;-68
2024/01/28 09:09:31;;;;;;;24.30;14.85;;;;;;;;;;4991225;28;20046;-68
2024/01/28 09:11:57;;;;;;;22.77;14.70;;;;;;;;;;4984336;28;20066;-68
2024/01/28 09:14:23;;;;;;;21.17;14.65;;;;;;;;;;4992259;28;20416;-68
2024/01/28 09:16:52;;;;;;;22.88;14.85;;;;;;;;;;4986798;28;20046;-68
2024/01/28 09:19:18;;;;;;;23.13;13.73;;;;;;;;;;4985571;28;20483;-68
2024/01/28 09:21:44;;;;;;;20.98;15.00;;;;;;;;;;4985240;28;20053;-68
2024/01/28 09:24:10;;;;;;;19.60;13.88;;;;;;;;;;5016693;28;20062;-68
2024/01/28 09:26:36;;;;;;;25.45;15.23;;;;;;;;;;4986749;28;20406;-68
2024/01/28 09:29:02;;;;;;;24.75;14.23;;;;;;;;;;4988900;28;20062;-68
2024/01/28 09:31:29;;;;;;;22.13;13.95;;;;;;;;;;4989005;28;20398;-68
2024/01/28 09:33:55;;;;;;;24.05;14.27;;;;;;;;;;4984401;28;20049;-68
2024/01/28 09:36:21;;;;;;;25.67;15.48;;;;;;;;;;4983643;28;20039;-67
2024/01/28 09:38:47;;;;;;;21.52;14.90;;;;;;;;;;4988427;28;20477;-68
2024/01/28 09:41:23;;;;;;;23.90;14.80;;;;;;;;;;5023183;28;20044;-68
2024/01/28 09:43:49;;;;;;;21.85;14.68;;;;;;;;;;4986223;28;20165;-68
2024/01/28 09:46:16;;;;;;;20.48;14.15;;;;;;;;;;4975727;28;20525;-67
2024/01/28 09:48:44;;;;;;;19.25;13.77;;;;;;;;;;4975509;28;20060;-67
2024/01/28 09:51:11;;;;;;;18.88;13.63;;;;;;;;;;5010907;28;20054;-67
2024/01/28 09:53:37;;;;;;;23.70;13.93;;;;;;;;;;4989410;28;20042;-67
2024/01/28 09:56:04;;;;;;;21.88;14.25;;;;;;;;;;5017135;28;20039;-68
2024/01/28 09:58:30;;;;;;;18.27;13.40;;;;;;;;;;5016371;28;20129;-69
2024/01/28 10:00:57;;;;;;;21.83;13.85;;;;;;;;;;4984537;28;20498;-68
2024/01/28 10:03:23;;;;;;;19.15;13.45;;;;;;;;;;4984729;28;20042;-68
2024/01/28 10:05:49;;;;;;;23.25;13.95;;;;;;;;;;5013536;28;20058;-68
2024/01/28 10:08:15;;;;;;;18.95;12.27;;;;;;;;;;4984794;28;20490;-69
2024/01/28 10:10:41;;;;;;;19.50;13.15;;;;;;;;;;4985210;28;20050;-68
2024/01/28 10:13:07;;;;;;;18.10;12.93;;;;;;;;;;5016849;28;20815;-69
2024/01/28 10:15:33;;;;;;;20.85;12.23;;;;;;;;;;4982229;28;20129;-68
2024/01/28 10:17:59;;;;;;;19.05;12.80;;;;;;;;;;5020713;28;20054;-68
2024/01/28 10:20:26;;;;;;;18.90;12.23;;;;;;;;;;5016235;28;20058;-68
2024/01/28 10:22:53;;;;;;;22.27;12.82;;;;;;;;;;4981888;28;20562;-68
2024/01/28 10:25:19;;;;;;;17.27;12.07;;;;;;;;;;4989750;28;20194;-68
2024/01/28 10:27:46;;;;;;;17.60;11.88;;;;;;;;;;4984929;28;20090;-68
2024/01/28 10:30:13;;;;;;;19.60;11.88;;;;;;;;;;4983439;28;20533;-68
2024/01/28 10:32:39;;;;;;;15.73;11.90;;;;;;;;;;4984233;28;20390;-68
2024/01/28 10:35:08;;;;;;;18.23;11.75;;;;;;;;;;5016643;28;20049;-68
2024/01/28 10:37:34;;;;;;;19.83;10.60;;;;;;;;;;4986339;28;20410;-68
2024/01/28 10:40:05;;;;;;;14.18;10.52;;;;;;;;;;4988258;28;20081;-68
2024/01/28 10:42:35;;;;;;;16.83;11.15;;;;;;;;;;4981449;28;20058;-69
2024/01/28 10:45:02;;;;;;;16.75;11.23;;;;;;;;;;4982091;28;20054;-69
2024/01/28 10:47:30;;;;;;;20.85;11.48;;;;;;;;;;4981018;28;20505;-68
2024/01/28 10:49:59;;;;;;;14.23;10.50;;;;;;;;;;4982182;28;20121;-68
2024/01/28 10:52:26;;;;;;;16.50;10.57;;;;;;;;;;4981849;28;20959;-68
2024/01/28 10:54:52;;;;;;;18.02;11.13;;;;;;;;;;4987764;28;20056;-68
2024/01/28 10:57:21;;;;;;;17.73;11.07;;;;;;;;;;4984287;28;20042;-68
2024/01/28 10:59:47;;;;;;;17.45;10.27;;;;;;;;;;4984643;28;20104;-68
2024/01/28 11:02:14;;;;;;;16.15;10.35;;;;;;;;;;4980632;28;20068;-68
2024/01/28 11:04:40;;;;;;;15.82;10.13;;;;;;;;;;5015430;28;20057;-68
2024/01/28 11:07:06;;;;;;;16.42;10.50;;;;;;;;;;4986246;28;20125;-68
2024/01/28 11:09:32;;;;;;;12.88;10.20;;;;;;;;;;5010699;28;20046;-68
2024/01/28 11:11:59;;;;;;;18.23;10.27;;;;;;;;;;4983509;28;20058;-68
2024/01/28 11:14:26;;;;;;;18.27;11.18;;;;;;;;;;4981448;28;20058;-69
2024/01/28 11:16:52;;;;;;;12.85;8.98;;;;;;;;;;4982614;28;20049;-68
2024/01/28 11:19:18;;;;;;;13.52;9.95;;;;;;;;;;4988382;28;20038;-68
2024/01/28 11:21:51;;;;;;;14.63;9.73;;;;;;;;;;4988462;28;20050;-68
2024/01/28 11:24:17;;;;;;;15.43;9.23;;;;;;;;;;4989986;28;20042;-68
2024/01/28 11:26:45;;;;;;;16.75;9.50;;;;;;;;;;4981961;28;20399;-68
2024/01/28 11:29:11;;;;;;;14.85;9.27;;;;;;;;;;5014809;28;20054;-68
2024/01/28 11:31:41;;;;;;;14.18;8.65;;;;;;;;;;4981374;28;20046;-68
2024/01/28 11:34:27;;;;;;;11.00;8.32;;;;;;;;;;4981519;28;20108;-68
2024/01/28 11:36:53;;;;;;;13.63;8.10;;;;;;;;;;4984523;28;20053;-68
2024/01/28 11:39:31;;;;;;;11.57;7.93;;;;;;;;;;4986533;28;20050;-68
2024/01/28 11:41:57;;;;;;;12.48;8.38;;;;;;;;;;4983236;28;20073;-69
2024/01/28 11:44:23;;;;;;;13.98;8.73;;;;;;;;;;4981824;28;20041;-68
2024/01/28 11:46:50;;;;;;;14.35;8.70;;;;;;;;;;4974828;28;20073;-69
2024/01/28 11:49:16;;;;;;;12.98;8.88;;;;;;;;;;4979458;28;20507;-68
2024/01/28 11:51:42;;;;;;;12.93;8.27;;;;;;;;;;4990838;28;20050;-68
2024/01/28 11:54:08;;;;;;;11.75;8.85;;;;;;;;;;4993261;28;20490;-68
2024/01/28 11:56:34;;;;;;;16.70;8.63;;;;;;;;;;4992215;28;20046;-69
2024/01/28 11:59:02;;;;;;;15.30;8.82;;;;;;;;;;4988564;28;20042;-68
2024/01/28 12:01:28;;;;;;;14.40;8.82;;;;;;;;;;4996204;28;20164;-68
2024/01/28 12:03:54;;;;;;;12.60;8.70;;;;;;;;;;5010816;28;20064;-68
2024/01/28 12:06:22;;;;;;;16.08;12.57;;;;;;;;;;4991901;28;20046;-68
2024/01/28 12:08:48;;;;;;;14.25;8.40;;;;;;;;;;4981589;28;20038;-68
2024/01/28 12:11:16;;;;;;;11.35;8.13;;;;;;;;;;4988211;28;20050;-67
2024/01/28 12:13:43;;;;;;;15.57;8.18;;;;;;;;;;4987449;28;20082;-68
2024/01/28 12:16:10;;;;;;;13.60;7.95;;;;;;;;;;4985805;28;20116;-68
2024/01/28 12:18:40;;;;;;;15.20;7.82;;;;;;;;;;4980067;28;20046;-69
2024/01/28 12:21:16;;;;;;;9.90;7.53;;;;;;;;;;4984972;28;20112;-68
2024/01/28 12:23:42;;;;;;;13.68;8.00;;;;;;;;;;4982202;28;20054;-68
2024/01/28 12:26:08;;;;;;;12.35;8.35;;;;;;;;;;5015239;28;20133;-68
2024/01/28 12:28:34;;;;;;;14.43;8.57;;;;;;;;;;4985177;28;20050;-68
2024/01/28 12:31:00;;;;;;;13.07;8.50;;;;;;;;;;4986124;28;20406;-67
2024/01/28 12:33:28;;;;;;;14.15;9.23;;;;;;;;;;4984093;28;20557;-68
2024/01/28 12:35:54;;;;;;;12.73;7.82;;;;;;;;;;4986063;28;20054;-69
2024/01/28 12:38:20;;;;;;;15.00;8.68;;;;;;;;;;4988775;28;20062;-68
2024/01/28 12:40:47;;;;;;;13.52;9.00;;;;;;;;;;4985868;28;20074;-68
2024/01/28 12:43:13;;;;;;;15.63;7.90;;;;;;;;;;4985677;28;20422;-68
2024/01/28 12:45:39;;;;;;;13.20;8.43;;;;;;;;;;4982871;28;20502;-68
2024/01/28 12:48:05;;;;;;;13.50;8.43;;;;;;;;;;4984399;28;20494;-68
2024/01/28 12:50:31;;;;;;;13.32;7.63;;;;;;;;;;4988035;28;20049;-68
2024/01/28 12:52:57;;;;;;;15.38;8.48;;;;;;;;;;4987788;28;20042;-68
2024/01/28 12:55:23;;;;;;;12.05;7.55;;;;;;;;;;4984705;28;20065;-68
2024/01/28 12:57:49;;;;;;;11.90;7.80;;;;;;;;;;4991165;28;20494;-68
2024/01/28 13:00:16;;;;;;;13.38;8.32;;;;;;;;;;4988463;28;20046;-68
2024/01/28 13:02:43;;;;;;;11.52;7.60;;;;;;;;;;4985600;28;20140;-68
2024/01/28 13:05:14;;;;;;;14.20;7.50;;;;;;;;;;4984290;28;20057;-68
2024/01/28 13:07:41;;;;;;;10.07;7.07;;;;;;;;;;4988860;28;20065;-68
2024/01/28 13:10:07;;;;;;;12.30;6.95;;;;;;;;;;4983614;28;20494;-68
2024/01/28 13:12:38;;;;;;;12.30;7.32;;;;;;;;;;5015307;28;20055;-68
2024/01/28 13:15:07;;;;;;;11.00;6.85;;;;;;;;;;4984518;28;20050;-68
2024/01/28 13:17:33;;;;;;;10.98;6.40;;;;;;;;;;4985399;28;20530;-68
2024/01/28 13:19:59;;;;;;;8.15;5.90;;;;;;;;;;4987156;28;20046;-68
2024/01/28 13:22:25;;;;;;;9.25;6.13;;;;;;;;;;4985538;28;20141;-69
2024/01/28 13:24:52;;;;;;;11.35;6.65;;;;;;;;;;4984629;28;20058;-69
2024/01/28 13:27:19;;;;;;;8.27;5.75;;;;;;;;;;4986669;28;20062;-69
2024/01/28 13:29:45;;;;;;;8.15;5.68;;;;;;;;;;5021403;28;20043;-69
2024/01/28 13:32:11;;;;;;;9.27;5.88;;;;;;;;;;4986939;28;20046;-69
2024/01/28 13:34:37;;;;;;;9.27;5.80;;;;;;;;;;4990031;28;20061;-69
2024/01/28 13:37:03;;;;;;;9.98;5.90;;;;;;;;;;4993076;28;21755;-69
2024/01/28 13:39:30;;;;;;;11.13;6.10;;;;;;;;;;4988230;28;20042;-69
2024/01/28 13:41:56;;;;;;;7.90;5.85;;;;;;;;;;4990021;28;20039;-69
2024/01/28 13:44:22;;;;;;;10.80;6.00;;;;;;;;;;4987394;28;21530;-69
2024/01/28 13:46:48;;;;;;;9.80;5.72;;;;;;;;;;5018490;28;21807;-69
2024/01/28 13:49:14;;;;;;;8.80;5.40;;;;;;;;;;4985959;28;20053;-69
2024/01/28 13:51:40;;;;;;;8.93;5.50;;;;;;;;;;5022430;28;20057;-69
2024/01/28 13:54:09;;;;;;;8.02;5.53;;;;;;;;;;4985748;28;20061;-68
2024/01/28 13:56:35;;;;;;;9.40;5.85;;;;;;;;;;4985224;28;20043;-69
2024/01/28 13:59:02;;;;;;;8.85;5.93;;;;;;;;;;4987386;28;20124;-68
2024/01/28 14:01:28;;;;;;;8.98;5.95;;;;;;;;;;4986594;28;20053;-68
2024/01/28 14:03:54;;;;;;;11.43;6.00;;;;;;;;;;4992089;28;20038;-69
2024/01/28 14:06:20;;;;;;;8.80;5.85;;;;;;;;;;4988907;28;20487;-69
2024/01/28 14:08:47;;;;;;;10.43;6.00;;;;;;;;;;4989248;28;20052;-68
2024/01/28 14:11:13;;;;;;;9.57;5.97;;;;;;;;;;4994317;28;20054;-69
2024/01/28 14:13:39;;;;;;;9.45;5.72;;;;;;;;;;4986453;28;20046;-69
2024/01/28 14:16:06;;;;;;;10.00;5.50;;;;;;;;;;5020048;28;20058;-68
2024/01/28 14:18:32;;;;;;;9.15;5.55;;;;;;;;;;4985563;28;20557;-69